Time;durP1;ratioP1;P1;durP2;ratioP2;P2;SDS_P1;SDS_P2;PMS_P1;PMS_P2;Temp;Humidity;BMP_temperature;BMP_pressure;BME280_temperature;BME280_humidity;BME280_pressure;Samples;Min_cycle;Max_cycle;Signal;HPM_P1;HPM_P2
2023/03/25 00:01:31;;;;;;;;;;;21.00;53.90;;;;;;5052618;28;19920;-76
2023/03/25 00:04:02;;;;;;;;;;;20.90;53.80;;;;;;5052333;28;19919;-77
2023/03/25 00:06:29;;;;;;;;;;;21.00;53.90;;;;;;5052335;28;19928;-76
2023/03/25 00:08:55;;;;;;;;;;;20.90;53.90;;;;;;5034558;28;19916;-76
2023/03/25 00:11:22;;;;;;;;;;;20.90;53.90;;;;;;5052024;28;20357;-76
2023/03/25 00:13:48;;;;;;;;;;;20.90;54.00;;;;;;5034430;28;19916;-77
2023/03/25 00:16:14;;;;;;;;;;;20.90;54.10;;;;;;5052411;28;19908;-77
2023/03/25 00:18:40;;;;;;;;;;;20.80;54.10;;;;;;5052236;28;19989;-77
2023/03/25 00:21:10;;;;;;;;;;;20.70;54.20;;;;;;5052286;28;19966;-77
2023/03/25 00:23:37;;;;;;;;;;;20.70;54.40;;;;;;5052081;28;20018;-77
2023/03/25 00:26:03;;;;;;;;;;;20.70;54.30;;;;;;5052416;28;19923;-77
2023/03/25 00:28:32;;;;;;;;;;;20.70;54.10;;;;;;5052182;28;20256;-76
2023/03/25 00:30:59;;;;;;;;;;;20.70;54.40;;;;;;5052210;28;19999;-77
2023/03/25 00:33:25;;;;;;;;;;;20.80;54.40;;;;;;5052095;28;19963;-77
2023/03/25 00:35:53;;;;;;;;;;;20.80;54.30;;;;;;5051812;28;19920;-77
2023/03/25 00:38:19;;;;;;;;;;;20.80;54.30;;;;;;5051749;28;20379;-76
2023/03/25 00:40:48;;;;;;;;;;;20.90;54.40;;;;;;5000351;28;19912;-77
2023/03/25 00:43:14;;;;;;;;;;;20.80;54.20;;;;;;5033790;28;19913;-77
2023/03/25 00:45:40;;;;;;;;;;;20.80;54.40;;;;;;5033979;28;20528;-77
2023/03/25 00:48:06;;;;;;;;;;;20.80;54.30;;;;;;5033942;28;20012;-77
2023/03/25 00:50:31;;;;;;;;;;;20.80;54.40;;;;;;5051769;28;19952;-77
2023/03/25 00:52:57;;;;;;;;;;;20.80;54.30;;;;;;5051754;28;19912;-77
2023/03/25 00:55:23;;;;;;;;;;;20.70;54.30;;;;;;5051495;28;19919;-77
2023/03/25 00:57:49;;;;;;;;;;;20.70;54.30;;;;;;5034019;28;20364;-77
2023/03/25 01:00:16;;;;;;;;;;;20.80;54.30;;;;;;5051451;28;19959;-76
2023/03/25 01:02:42;;;;;;;;;;;20.70;54.30;;;;;;5051630;28;19920;-77
2023/03/25 01:05:10;;;;;;;;;;;20.70;54.30;;;;;;5051560;28;20015;-77
2023/03/25 01:07:37;;;;;;;;;;;20.70;54.30;;;;;;5051308;28;19912;-77
2023/03/25 01:10:05;;;;;;;;;;;20.70;54.40;;;;;;5033757;28;19909;-77
2023/03/25 01:12:31;;;;;;;;;;;20.70;54.40;;;;;;5017148;28;19928;-77
2023/03/25 01:14:57;;;;;;;;;;;20.70;54.50;;;;;;5071371;28;19961;-77
2023/03/25 01:17:23;;;;;;;;;;;20.70;54.50;;;;;;5071458;28;19909;-77
2023/03/25 01:19:49;;;;;;;;;;;20.70;54.50;;;;;;5071518;28;19920;-77
2023/03/25 01:22:16;;;;;;;;;;;20.60;54.40;;;;;;5069993;28;20386;-77
2023/03/25 01:24:42;;;;;;;;;;;20.50;54.40;;;;;;5071584;28;19916;-77
2023/03/25 01:27:08;;;;;;;;;;;20.60;54.50;;;;;;5070368;28;19908;-76
2023/03/25 01:29:34;;;;;;;;;;;20.60;54.60;;;;;;5070133;28;19959;-77
2023/03/25 01:32:00;;;;;;;;;;;20.60;54.70;;;;;;5071464;28;19912;-77
2023/03/25 01:34:26;;;;;;;;;;;20.60;54.80;;;;;;5053089;28;19909;-77
2023/03/25 01:36:54;;;;;;;;;;;20.60;54.80;;;;;;5070238;28;19916;-77
2023/03/25 01:39:20;;;;;;;;;;;20.70;54.80;;;;;;5071215;28;20043;-77
2023/03/25 01:41:47;;;;;;;;;;;20.50;54.70;;;;;;5071469;28;19924;-76
2023/03/25 01:44:13;;;;;;;;;;;20.60;54.70;;;;;;5069840;28;20480;-77
2023/03/25 01:46:43;;;;;;;;;;;20.60;54.60;;;;;;5071128;28;19908;-77
2023/03/25 01:49:13;;;;;;;;;;;20.70;54.80;;;;;;5053111;28;19909;-77
2023/03/25 01:51:41;;;;;;;;;;;20.70;54.60;;;;;;5071565;28;19916;-77
2023/03/25 01:54:07;;;;;;;;;;;20.60;54.50;;;;;;5071258;28;19909;-76
2023/03/25 01:56:36;;;;;;;;;;;20.60;54.50;;;;;;5073366;28;20388;-76
2023/03/25 01:59:03;;;;;;;;;;;20.70;54.70;;;;;;5073827;28;19909;-77
2023/03/25 02:01:30;;;;;;;;;;;20.80;54.60;;;;;;5074793;28;20287;-76
2023/03/25 02:04:01;;;;;;;;;;;20.60;54.40;;;;;;5073826;28;19916;-77
2023/03/25 02:06:34;;;;;;;;;;;20.60;54.50;;;;;;5073336;28;19931;-77
2023/03/25 02:09:02;;;;;;;;;;;20.60;54.50;;;;;;5074817;28;19908;-77
2023/03/25 02:11:28;;;;;;;;;;;20.60;54.60;;;;;;5072896;28;19908;-76
2023/03/25 02:13:55;;;;;;;;;;;20.60;54.50;;;;;;5054732;28;19962;-76
2023/03/25 02:16:36;;;;;;;;;;;20.60;54.60;;;;;;5054495;28;19908;-77
2023/03/25 02:19:32;;;;;;;;;;;20.40;54.50;;;;;;5054806;28;19919;-77
2023/03/25 02:22:04;;;;;;;;;;;20.60;54.70;;;;;;4954049;29;19914;-77
2023/03/25 02:24:34;;;;;;;;;;;20.60;54.80;;;;;;4954079;29;19922;-77
2023/03/25 02:27:16;;;;;;;;;;;20.50;54.80;;;;;;4937977;29;19957;-76
2023/03/25 02:30:01;;;;;;;;;;;20.60;54.80;;;;;;4937783;29;20319;-77
2023/03/25 02:32:53;;;;;;;;;;;20.60;54.70;;;;;;4953992;29;19914;-77
2023/03/25 02:35:21;;;;;;;;;;;20.60;54.70;;;;;;4934517;29;19914;-77
2023/03/25 02:38:08;;;;;;;;;;;20.40;54.80;;;;;;4934743;29;19911;-77
2023/03/25 02:40:43;;;;;;;;;;;20.30;54.90;;;;;;4918568;29;19915;-77
2023/03/25 02:43:13;;;;;;;;;;;20.60;55.10;;;;;;4934536;29;19958;-77
2023/03/25 02:45:46;;;;;;;;;;;20.50;55.10;;;;;;4918502;29;19914;-77
2023/03/25 02:48:17;;;;;;;;;;;20.40;55.00;;;;;;4934427;29;19950;-77
2023/03/25 02:50:47;;;;;;;;;;;20.50;55.00;;;;;;4934534;29;19922;-77
2023/03/25 02:53:18;;;;;;;;;;;20.50;55.00;;;;;;4918416;29;19915;-77
2023/03/25 02:55:46;;;;;;;;;;;20.50;55.00;;;;;;4918428;29;19910;-76
2023/03/25 02:58:15;;;;;;;;;;;20.50;55.00;;;;;;4926653;29;19921;-76
2023/03/25 03:00:42;;;;;;;;;;;20.60;54.90;;;;;;4953400;29;19923;-77
2023/03/25 03:03:08;;;;;;;;;;;20.50;54.90;;;;;;4953511;29;19918;-77
2023/03/25 03:05:35;;;;;;;;;;;20.60;54.90;;;;;;4953145;29;19918;-77
2023/03/25 03:08:17;;;;;;;;;;;20.60;54.80;;;;;;4953094;28;19910;-76
2023/03/25 03:10:55;;;;;;;;;;;20.50;54.80;;;;;;4953155;29;20400;-77
2023/03/25 03:13:24;;;;;;;;;;;20.50;54.70;;;;;;5066576;28;19931;-76
2023/03/25 03:16:20;;;;;;;;;;;20.50;54.80;;;;;;5073530;28;19916;-77
2023/03/25 03:19:01;;;;;;;;;;;20.60;54.80;;;;;;4991668;28;19936;-76
2023/03/25 03:21:46;;;;;;;;;;;20.50;54.80;;;;;;4991725;28;19928;-77
2023/03/25 03:24:15;;;;;;;;;;;20.60;54.90;;;;;;4991892;28;19917;-77
2023/03/25 03:26:58;;;;;;;;;;;20.30;54.90;;;;;;4991633;28;19910;-77
2023/03/25 03:29:30;;;;;;;;;;;20.50;54.90;;;;;;4991647;28;20334;-76
2023/03/25 03:32:08;;;;;;;;;;;20.50;54.90;;;;;;4991433;28;19917;-77
2023/03/25 03:34:41;;;;;;;;;;;20.50;54.90;;;;;;4991664;28;20370;-77
2023/03/25 03:37:09;;;;;;;;;;;20.50;54.80;;;;;;4991295;28;19992;-77
2023/03/25 03:39:37;;;;;;;;;;;20.40;54.80;;;;;;4952565;29;19914;-77
2023/03/25 03:42:13;;;;;;;;;;;20.40;54.80;;;;;;4952359;28;20033;-77
2023/03/25 03:44:42;;;;;;;;;;;20.40;54.90;;;;;;4952620;29;19918;-77
2023/03/25 03:47:11;;;;;;;;;;;20.40;55.00;;;;;;4952408;29;19910;-76
2023/03/25 03:49:41;;;;;;;;;;;20.40;55.10;;;;;;4952557;29;19997;-77
2023/03/25 03:52:15;;;;;;;;;;;20.40;55.10;;;;;;4952317;29;19914;-76
2023/03/25 03:54:47;;;;;;;;;;;20.40;55.10;;;;;;4982614;28;19909;-77
2023/03/25 03:57:16;;;;;;;;;;;20.60;55.10;;;;;;5050195;28;20016;-76
2023/03/25 03:59:48;;;;;;;;;;;20.40;55.00;;;;;;5050326;28;20008;-76
2023/03/25 04:02:29;;;;;;;;;;;20.50;55.00;;;;;;5050240;28;20418;-77
2023/03/25 04:04:59;;;;;;;;;;;20.50;55.00;;;;;;5050302;28;19913;-77
2023/03/25 04:07:53;;;;;;;;;;;20.60;55.00;;;;;;5050057;28;19919;-77
2023/03/25 04:10:21;;;;;;;;;;;20.40;54.90;;;;;;5058684;28;19919;-77
2023/03/25 04:12:50;;;;;;;;;;;20.60;55.00;;;;;;5059691;28;19932;-77
2023/03/25 04:15:16;;;;;;;;;;;20.60;55.10;;;;;;5052550;28;19909;-77
2023/03/25 04:17:42;;;;;;;;;;;20.40;55.00;;;;;;5051802;28;20387;-77
2023/03/25 04:20:12;;;;;;;;;;;20.50;55.00;;;;;;5051956;28;19912;-76
2023/03/25 04:22:38;;;;;;;;;;;20.50;54.90;;;;;;5052135;28;19912;-76
2023/03/25 04:25:06;;;;;;;;;;;20.50;55.00;;;;;;5052178;28;20303;-77
2023/03/25 04:27:36;;;;;;;;;;;20.50;55.00;;;;;;5052106;28;19935;-77
2023/03/25 04:30:06;;;;;;;;;;;20.50;55.00;;;;;;5052440;28;20264;-77
2023/03/25 04:32:32;;;;;;;;;;;20.50;55.10;;;;;;5052175;28;19913;-77
2023/03/25 04:34:58;;;;;;;;;;;20.40;55.00;;;;;;5052055;28;19920;-76
2023/03/25 04:37:25;;;;;;;;;;;20.40;55.10;;;;;;5051796;28;19936;-77
2023/03/25 04:39:52;;;;;;;;;;;20.50;55.20;;;;;;5051738;28;19966;-77
2023/03/25 04:42:18;;;;;;;;;;;20.30;55.10;;;;;;5051714;28;19938;-77
2023/03/25 04:44:44;;;;;;;;;;;20.30;55.10;;;;;;5051802;28;20364;-77
2023/03/25 04:47:15;;;;;;;;;;;20.50;55.20;;;;;;5051737;28;19962;-77
2023/03/25 04:49:43;;;;;;;;;;;20.40;55.20;;;;;;5051692;28;19931;-77
2023/03/25 04:52:10;;;;;;;;;;;20.30;55.30;;;;;;5051758;28;19913;-77
2023/03/25 04:54:37;;;;;;;;;;;20.30;55.30;;;;;;5051618;28;19908;-77
2023/03/25 04:57:03;;;;;;;;;;;20.30;55.30;;;;;;5051885;28;19912;-77
2023/03/25 04:59:29;;;;;;;;;;;20.40;55.40;;;;;;5051667;28;19923;-76
2023/03/25 05:01:55;;;;;;;;;;;20.20;55.40;;;;;;5051569;28;19912;-77
2023/03/25 05:04:23;;;;;;;;;;;20.30;55.40;;;;;;5051717;28;19919;-77
2023/03/25 05:06:50;;;;;;;;;;;20.30;55.40;;;;;;5051301;28;20288;-77
2023/03/25 05:09:26;;;;;;;;;;;20.40;55.40;;;;;;5051515;28;19909;-77
2023/03/25 05:11:52;;;;;;;;;;;20.40;55.30;;;;;;5051614;28;19928;-77
2023/03/25 05:14:19;;;;;;;;;;;20.40;55.20;;;;;;5051545;28;19923;-77
2023/03/25 05:16:46;;;;;;;;;;;20.40;55.20;;;;;;5051158;28;19912;-76
2023/03/25 05:19:13;;;;;;;;;;;20.50;55.30;;;;;;5051388;28;20387;-77
2023/03/25 05:21:42;;;;;;;;;;;20.40;55.10;;;;;;5051210;28;19924;-77
2023/03/25 05:24:09;;;;;;;;;;;20.40;55.00;;;;;;5051474;28;19916;-77
2023/03/25 05:26:36;;;;;;;;;;;20.50;55.10;;;;;;5051456;28;19919;-76
2023/03/25 05:29:03;;;;;;;;;;;20.50;55.00;;;;;;5051329;28;19913;-77
2023/03/25 05:31:29;;;;;;;;;;;20.50;54.90;;;;;;5055277;28;19927;-77
2023/03/25 05:33:55;;;;;;;;;;;20.40;54.80;;;;;;4993604;28;20325;-77
2023/03/25 05:36:23;;;;;;;;;;;20.50;54.80;;;;;;4993573;28;19913;-77
2023/03/25 05:38:50;;;;;;;;;;;20.40;54.70;;;;;;4993644;28;20366;-77
2023/03/25 05:41:16;;;;;;;;;;;20.50;54.80;;;;;;4993430;28;19949;-77
2023/03/25 05:43:46;;;;;;;;;;;20.50;54.80;;;;;;4993384;28;19917;-77
2023/03/25 05:46:13;;;;;;;;;;;20.50;54.80;;;;;;4977200;28;19953;-77
2023/03/25 05:48:40;;;;;;;;;;;20.50;54.80;;;;;;4993308;28;19909;-76
2023/03/25 05:51:12;;;;;;;;;;;20.50;54.80;;;;;;4993443;28;20353;-76
2023/03/25 05:53:38;;;;;;;;;;;20.40;54.70;;;;;;4993413;28;19917;-76
2023/03/25 05:56:05;;;;;;;;;;;20.50;54.80;;;;;;4993168;28;20376;-76
2023/03/25 05:58:31;;;;;;;;;;;20.50;54.90;;;;;;4993113;28;19909;-77
2023/03/25 06:00:59;;;;;;;;;;;20.40;54.80;;;;;;4993193;28;20318;-77
2023/03/25 06:03:26;;;;;;;;;;;20.50;54.80;;;;;;4993208;28;20009;-76
2023/03/25 06:05:52;;;;;;;;;;;20.30;54.80;;;;;;5048751;28;20319;-76
2023/03/25 06:08:24;;;;;;;;;;;20.40;54.70;;;;;;5036933;28;19912;-76
2023/03/25 06:10:59;;;;;;;;;;;20.50;54.80;;;;;;5036720;28;20009;-77
2023/03/25 06:13:26;;;;;;;;;;;20.50;54.90;;;;;;5054819;28;20019;-76
2023/03/25 06:15:55;;;;;;;;;;;20.40;54.90;;;;;;5054528;28;19909;-76
2023/03/25 06:18:24;;;;;;;;;;;20.50;54.90;;;;;;5054749;28;19963;-76
2023/03/25 06:20:52;;;;;;;;;;;20.40;54.80;;;;;;5054517;28;19913;-76
2023/03/25 06:23:21;;;;;;;;;;;20.50;54.80;;;;;;5054562;28;20368;-77
2023/03/25 06:25:48;;;;;;;;;;;20.50;54.80;;;;;;5054509;28;19952;-77
2023/03/25 06:28:17;;;;;;;;;;;20.50;54.80;;;;;;5054275;28;19909;-76
2023/03/25 06:30:46;;;;;;;;;;;20.60;54.80;;;;;;5054260;28;19909;-76
2023/03/25 06:33:13;;;;;;;;;;;20.50;54.70;;;;;;5054361;28;20280;-77
2023/03/25 06:35:41;;;;;;;;;;;20.60;54.60;;;;;;5054255;28;19908;-77
2023/03/25 06:38:08;;;;;;;;;;;20.60;54.60;;;;;;5054217;28;20004;-76
2023/03/25 06:41:01;;;;;;;;;;;20.70;54.60;;;;;;5050353;28;19909;-77
2023/03/25 06:43:27;;;;;;;;;;;20.70;54.50;;;;;;5036459;28;20292;-76
2023/03/25 06:46:13;;;;;;;;;;;20.70;54.40;;;;;;4953608;28;19914;-77
2023/03/25 06:49:14;;;;;;;;;;;20.80;54.30;;;;;;4934484;29;19914;-76
2023/03/25 06:51:41;;;;;;;;;;;20.70;54.30;;;;;;4934581;29;19947;-77
2023/03/25 06:54:06;;;;;;;;;;;20.70;54.30;;;;;;4934308;29;19917;-77
2023/03/25 06:56:32;;;;;;;;;;;20.70;54.30;;;;;;4934182;29;19995;-77
2023/03/25 06:58:58;;;;;;;;;;;20.90;54.40;;;;;;4934203;29;19914;-76
2023/03/25 07:01:24;;;;;;;;;;;20.70;54.10;;;;;;4934390;29;19946;-76
2023/03/25 07:03:50;;;;;;;;;;;20.80;54.00;;;;;;4934196;29;19953;-77
2023/03/25 07:06:17;;;;;;;;;;;20.80;54.00;;;;;;4933958;29;19910;-77
2023/03/25 07:08:43;;;;;;;;;;;20.70;54.00;;;;;;4934019;29;19915;-77
2023/03/25 07:11:09;;;;;;;;;;;20.70;54.10;;;;;;4933700;29;20006;-76
2023/03/25 07:13:35;;;;;;;;;;;20.80;54.00;;;;;;4934190;29;19923;-77
2023/03/25 07:16:01;;;;;;;;;;;20.80;54.00;;;;;;4933945;29;19910;-77
2023/03/25 07:18:27;;;;;;;;;;;20.80;53.80;;;;;;4933852;29;19961;-77
2023/03/25 07:20:53;;;;;;;;;;;20.80;53.90;;;;;;4933919;29;20106;-76
2023/03/25 07:23:19;;;;;;;;;;;20.90;53.90;;;;;;4995021;28;19924;-76
2023/03/25 07:25:45;;;;;;;;;;;20.90;54.00;;;;;;5053463;28;20372;-76
2023/03/25 07:28:11;;;;;;;;;;;20.80;53.90;;;;;;5053231;28;19920;-76
2023/03/25 07:30:43;;;;;;;;;;;20.90;54.00;;;;;;5035505;28;19908;-76
2023/03/25 07:33:09;;;;;;;;;;;20.90;53.90;;;;;;5053304;28;20368;-77
2023/03/25 07:35:35;;;;;;;;;;;20.90;53.70;;;;;;5053478;28;19975;-77
2023/03/25 07:38:01;;;;;;;;;;;21.00;53.20;;;;;;5052833;28;20466;-77
2023/03/25 07:40:27;;;;;;;;;;;21.00;53.70;;;;;;5053153;28;19976;-76
2023/03/25 07:42:53;;;;;;;;;;;20.90;53.70;;;;;;5053034;28;19917;-76
2023/03/25 07:45:21;;;;;;;;;;;21.10;53.80;;;;;;5035038;28;19919;-76
2023/03/25 07:47:49;;;;;;;;;;;21.00;53.70;;;;;;5035049;28;19916;-76
2023/03/25 07:50:16;;;;;;;;;;;21.00;53.60;;;;;;5052852;28;19909;-77
2023/03/25 07:52:42;;;;;;;;;;;21.10;53.60;;;;;;5052474;28;20031;-77
2023/03/25 07:55:08;;;;;;;;;;;21.10;53.70;;;;;;5052426;28;20415;-76
2023/03/25 07:57:34;;;;;;;;;;;21.10;53.60;;;;;;5052777;28;19912;-76
2023/03/25 08:00:00;;;;;;;;;;;21.10;53.60;;;;;;5018610;28;19909;-76
2023/03/25 08:02:26;;;;;;;;;;;21.00;53.50;;;;;;5052767;28;19916;-77
2023/03/25 08:04:53;;;;;;;;;;;21.00;53.60;;;;;;5052483;28;19916;-77
2023/03/25 08:07:20;;;;;;;;;;;21.00;53.60;;;;;;5052558;28;19923;-77
2023/03/25 08:09:46;;;;;;;;;;;21.00;53.50;;;;;;5052437;28;19978;-76
2023/03/25 08:12:12;;;;;;;;;;;21.10;53.60;;;;;;5052360;28;19932;-76
2023/03/25 08:14:37;;;;;;;;;;;21.00;53.50;;;;;;5052429;28;19909;-77
2023/03/25 08:17:04;;;;;;;;;;;20.90;53.40;;;;;;5052218;28;20442;-76
2023/03/25 08:19:30;;;;;;;;;;;21.00;53.40;;;;;;5052396;28;19912;-76
2023/03/25 08:21:57;;;;;;;;;;;21.10;53.40;;;;;;5052208;28;19962;-77
2023/03/25 08:24:25;;;;;;;;;;;21.10;53.40;;;;;;5052449;28;20019;-76
2023/03/25 08:26:52;;;;;;;;;;;21.00;52.50;;;;;;5052232;28;20338;-76
2023/03/25 08:29:19;;;;;;;;;;;21.00;53.30;;;;;;5052054;28;20368;-77
2023/03/25 08:31:45;;;;;;;;;;;21.00;53.30;;;;;;5052079;28;19999;-77
2023/03/25 08:34:11;;;;;;;;;;;21.00;53.00;;;;;;5052292;28;19912;-77
2023/03/25 08:36:40;;;;;;;;;;;21.00;53.40;;;;;;5052248;28;19909;-76
2023/03/25 08:39:10;;;;;;;;;;;21.10;53.50;;;;;;5051958;28;19915;-77
2023/03/25 08:41:37;;;;;;;;;;;21.10;53.50;;;;;;5051972;28;20333;-77
2023/03/25 08:44:06;;;;;;;;;;;21.10;53.50;;;;;;5052164;28;19913;-76
2023/03/25 08:46:32;;;;;;;;;;;21.10;53.40;;;;;;5051978;28;19944;-76
2023/03/25 08:48:58;;;;;;;;;;;21.30;53.60;;;;;;5051712;28;19955;-76
2023/03/25 08:51:24;;;;;;;;;;;21.10;53.40;;;;;;5033979;28;19968;-77
2023/03/25 08:53:50;;;;;;;;;;;21.10;53.40;;;;;;5051678;28;19913;-76
2023/03/25 08:56:16;;;;;;;;;;;21.20;53.40;;;;;;5051651;28;19935;-76
2023/03/25 08:58:42;;;;;;;;;;;21.20;53.40;;;;;;5051658;28;19951;-76
2023/03/25 09:01:08;;;;;;;;;;;21.30;53.40;;;;;;5051632;28;20009;-77
2023/03/25 09:03:33;;;;;;;;;;;21.30;53.40;;;;;;5051697;28;20044;-77
2023/03/25 09:06:06;;;;;;;;;;;21.30;53.30;;;;;;5051036;28;20296;-76
2023/03/25 09:08:32;;;;;;;;;;;21.30;53.30;;;;;;5051490;28;19919;-76
2023/03/25 09:10:58;;;;;;;;;;;21.20;53.20;;;;;;5051496;28;19915;-76
2023/03/25 09:13:24;;;;;;;;;;;21.20;53.20;;;;;;5052045;28;19933;-76
2023/03/25 09:15:50;;;;;;;;;;;21.20;53.20;;;;;;5051601;28;19908;-76
2023/03/25 09:18:16;;;;;;;;;;;21.30;53.30;;;;;;5051276;28;19913;-77
2023/03/25 09:20:42;;;;;;;;;;;21.20;52.70;;;;;;5051454;28;20422;-76
2023/03/25 09:23:11;;;;;;;;;;;21.20;52.90;;;;;;5051322;28;19913;-76
2023/03/25 09:25:37;;;;;;;;;;;21.20;53.20;;;;;;5051535;28;20284;-77
2023/03/25 09:28:03;;;;;;;;;;;21.20;53.10;;;;;;5051615;28;19912;-76
2023/03/25 09:30:28;;;;;;;;;;;21.20;52.00;;;;;;5051522;28;19913;-77
2023/03/25 09:32:54;;;;;;;;;;;21.20;53.10;;;;;;5051202;28;20035;-77
2023/03/25 09:35:20;;;;;;;;;;;21.20;53.20;;;;;;5033587;28;19919;-77
2023/03/25 09:37:46;;;;;;;;;;;21.20;53.20;;;;;;5051175;28;19909;-76
2023/03/25 09:40:13;;;;;;;;;;;21.20;53.20;;;;;;5051470;28;19912;-76
2023/03/25 09:42:58;;;;;;;;;;;21.10;53.00;;;;;;5051183;28;19913;-76
2023/03/25 09:45:33;;;;;;;;;;;21.20;52.60;;;;;;5051160;28;19916;-76
2023/03/25 09:48:17;;;;;;;;;;;21.20;52.40;;;;;;5051025;28;19916;-77
2023/03/25 09:50:44;;;;;;;;;;;21.20;53.20;;;;;;5051443;28;19913;-77
2023/03/25 09:53:29;;;;;;;;;;;21.10;53.30;;;;;;5051529;28;19919;-77
2023/03/25 09:55:56;;;;;;;;;;;21.20;53.30;;;;;;5033135;28;19912;-77
2023/03/25 09:58:42;;;;;;;;;;;21.20;52.40;;;;;;5051043;28;19909;-76
2023/03/25 10:01:18;;;;;;;;;;;21.30;53.30;;;;;;5050840;28;20364;-76
2023/03/25 10:03:54;;;;;;;;;;;21.40;53.40;;;;;;5051140;28;20340;-76
2023/03/25 10:06:20;;;;;;;;;;;21.30;52.80;;;;;;5050911;28;19909;-77
2023/03/25 10:08:49;;;;;;;;;;;21.30;53.40;;;;;;5050967;28;19916;-76
2023/03/25 10:11:15;;;;;;;;;;;21.40;53.40;;;;;;5051188;28;19916;-76
2023/03/25 10:13:57;;;;;;;;;;;21.30;53.30;;;;;;5051141;28;19924;-77
2023/03/25 10:16:29;;;;;;;;;;;21.40;53.30;;;;;;5051132;28;19913;-76
2023/03/25 10:19:04;;;;;;;;;;;21.40;53.30;;;;;;5054592;28;19920;-76
2023/03/25 10:21:40;;;;;;;;;;;21.30;53.30;;;;;;5054368;28;20394;-76
2023/03/25 10:24:26;;;;;;;;;;;21.30;53.30;;;;;;5054631;28;19967;-76
2023/03/25 10:27:00;;;;;;;;;;;21.30;53.30;;;;;;5054453;28;19916;-76
2023/03/25 10:29:32;;;;;;;;;;;21.30;53.30;;;;;;5054530;28;19909;-77
2023/03/25 10:32:00;;;;;;;;;;;21.30;53.20;;;;;;5054393;28;20403;-76
2023/03/25 10:34:36;;;;;;;;;;;21.30;53.30;;;;;;5036648;28;20413;-76
2023/03/25 10:37:04;;;;;;;;;;;21.30;53.30;;;;;;5054332;28;20007;-76
2023/03/25 10:39:38;;;;;;;;;;;21.30;53.20;;;;;;5054107;28;19909;-76
2023/03/25 10:42:18;;;;;;;;;;;21.30;53.30;;;;;;5054213;28;19917;-76
2023/03/25 10:44:45;;;;;;;;;;;21.30;53.20;;;;;;5018671;28;20292;-76
2023/03/25 10:47:15;;;;;;;;;;;21.20;53.00;;;;;;5036351;28;20553;-76
2023/03/25 10:49:42;;;;;;;;;;;21.30;52.90;;;;;;5054117;28;19916;-76
2023/03/25 10:52:08;;;;;;;;;;;21.30;53.30;;;;;;5054129;28;19908;-77
2023/03/25 10:54:36;;;;;;;;;;;21.10;53.30;;;;;;5054288;28;19909;-76
2023/03/25 10:57:05;;;;;;;;;;;21.20;53.30;;;;;;5053832;28;19920;-77
2023/03/25 10:59:38;;;;;;;;;;;21.30;53.40;;;;;;5053928;28;19919;-77
2023/03/25 11:02:16;;;;;;;;;;;21.40;53.40;;;;;;5053662;28;19916;-76
2023/03/25 11:04:43;;;;;;;;;;;21.30;53.40;;;;;;5053924;28;19912;-76
2023/03/25 11:07:25;;;;;;;;;;;21.30;53.20;;;;;;5053747;28;19967;-76
2023/03/25 11:09:51;;;;;;;;;;;21.40;53.40;;;;;;5053591;28;19920;-76
2023/03/25 11:12:18;;;;;;;;;;;21.40;53.40;;;;;;5053637;28;19921;-76
2023/03/25 11:14:52;;;;;;;;;;;21.40;53.40;;;;;;5035791;28;19909;-77
2023/03/25 11:17:20;;;;;;;;;;;21.40;53.30;;;;;;5053471;28;20403;-76
2023/03/25 11:19:54;;;;;;;;;;;21.40;53.30;;;;;;5053377;28;20260;-76
2023/03/25 11:22:31;;;;;;;;;;;21.50;53.40;;;;;;5053343;28;20356;-76
2023/03/25 11:25:20;;;;;;;;;;;21.50;53.40;;;;;;5053572;28;19958;-76
2023/03/25 11:27:47;;;;;;;;;;;21.40;53.00;;;;;;4952756;28;20045;-76
2023/03/25 11:30:18;;;;;;;;;;;21.40;53.20;;;;;;4952673;29;19910;-76
2023/03/25 11:32:55;;;;;;;;;;;21.40;53.20;;;;;;4953005;29;19945;-76
2023/03/25 11:35:23;;;;;;;;;;;21.40;53.10;;;;;;4952908;29;19917;-76
2023/03/25 11:37:59;;;;;;;;;;;21.30;53.10;;;;;;4952879;29;20064;-76
2023/03/25 11:40:26;;;;;;;;;;;21.20;51.60;;;;;;4952708;29;20394;-76
2023/03/25 11:42:54;;;;;;;;;;;21.50;53.10;;;;;;4952783;29;19941;-76
2023/03/25 11:45:25;;;;;;;;;;;21.30;53.10;;;;;;4952619;29;19919;-76
2023/03/25 11:47:51;;;;;;;;;;;21.40;53.10;;;;;;4952650;29;19914;-76
2023/03/25 11:50:18;;;;;;;;;;;21.40;53.20;;;;;;4952532;29;19918;-76
2023/03/25 11:52:45;;;;;;;;;;;21.30;52.80;;;;;;4952416;29;19910;-76
2023/03/25 11:55:25;;;;;;;;;;;21.30;53.00;;;;;;4952631;28;19964;-76
2023/03/25 11:57:53;;;;;;;;;;;21.30;53.10;;;;;;4952601;29;19921;-76
2023/03/25 12:00:27;;;;;;;;;;;21.40;53.10;;;;;;4936523;29;19957;-76
2023/03/25 12:03:01;;;;;;;;;;;21.50;53.00;;;;;;4952295;29;20378;-76
2023/03/25 12:05:27;;;;;;;;;;;21.40;53.20;;;;;;5030574;28;20015;-76
2023/03/25 12:08:00;;;;;;;;;;;21.40;53.20;;;;;;5052493;28;20035;-77
2023/03/25 12:10:29;;;;;;;;;;;21.30;53.30;;;;;;5052811;28;19966;-76
2023/03/25 12:13:02;;;;;;;;;;;21.30;53.30;;;;;;5052458;28;20020;-77
2023/03/25 12:15:41;;;;;;;;;;;21.30;53.30;;;;;;5052492;28;19913;-76
2023/03/25 12:18:16;;;;;;;;;;;21.30;53.40;;;;;;5052479;28;19970;-76
2023/03/25 12:20:48;;;;;;;;;;;21.30;53.40;;;;;;5052225;28;19916;-76
2023/03/25 12:23:27;;;;;;;;;;;21.40;53.40;;;;;;5052372;28;19917;-77
2023/03/25 12:26:05;;;;;;;;;;;21.40;53.40;;;;;;5052210;28;20023;-77
2023/03/25 12:28:40;;;;;;;;;;;21.40;53.40;;;;;;5052351;28;20367;-76
2023/03/25 12:31:35;;;;;;;;;;;21.40;53.40;;;;;;5052245;28;19913;-77
2023/03/25 12:34:04;;;;;;;;;;;21.40;53.40;;;;;;4951795;29;19920;-77
2023/03/25 12:36:32;;;;;;;;;;;21.50;53.50;;;;;;4951572;29;20397;-76
2023/03/25 12:39:05;;;;;;;;;;;21.40;53.30;;;;;;4951022;28;19915;-76
2023/03/25 12:41:57;;;;;;;;;;;21.50;53.30;;;;;;4951361;29;19969;-76
2023/03/25 12:44:42;;;;;;;;;;;21.50;53.30;;;;;;4932205;29;20287;-76
2023/03/25 12:47:08;;;;;;;;;;;21.60;53.30;;;;;;4932520;29;19911;-76
2023/03/25 12:49:52;;;;;;;;;;;21.60;53.30;;;;;;4932119;29;19915;-76
2023/03/25 12:52:37;;;;;;;;;;;21.60;53.20;;;;;;4932391;29;19911;-76
2023/03/25 12:55:21;;;;;;;;;;;21.60;53.10;;;;;;4932413;29;19937;-76
2023/03/25 12:58:10;;;;;;;;;;;21.70;53.20;;;;;;4932215;29;19918;-76
2023/03/25 13:00:36;;;;;;;;;;;21.60;53.10;;;;;;4913192;29;19988;-76
2023/03/25 13:03:20;;;;;;;;;;;21.60;53.00;;;;;;4913076;29;20434;-77
2023/03/25 13:05:55;;;;;;;;;;;21.70;53.00;;;;;;4913136;29;19915;-76
2023/03/25 13:08:30;;;;;;;;;;;21.70;53.00;;;;;;4912987;29;20363;-77
2023/03/25 13:10:59;;;;;;;;;;;21.80;52.90;;;;;;4912935;29;20046;-77
2023/03/25 13:13:27;;;;;;;;;;;21.90;53.00;;;;;;4912899;29;19957;-77
2023/03/25 13:15:55;;;;;;;;;;;21.80;52.90;;;;;;4913073;29;20398;-76
2023/03/25 13:18:25;;;;;;;;;;;21.80;52.80;;;;;;4913042;29;20013;-77
2023/03/25 13:21:00;;;;;;;;;;;21.90;52.90;;;;;;4946830;28;19910;-77
2023/03/25 13:23:27;;;;;;;;;;;21.90;52.80;;;;;;4993032;28;19917;-76
2023/03/25 13:26:02;;;;;;;;;;;21.80;52.70;;;;;;5009329;28;19995;-77
2023/03/25 13:28:37;;;;;;;;;;;21.80;52.60;;;;;;5009130;28;19913;-76
2023/03/25 13:31:10;;;;;;;;;;;21.90;52.70;;;;;;4976436;28;19920;-76
2023/03/25 13:33:37;;;;;;;;;;;21.90;52.70;;;;;;5009248;28;20019;-76
2023/03/25 13:36:06;;;;;;;;;;;21.90;52.70;;;;;;4993202;28;19913;-77
2023/03/25 13:38:44;;;;;;;;;;;21.90;52.60;;;;;;5046243;28;19909;-76
2023/03/25 13:41:16;;;;;;;;;;;21.80;52.50;;;;;;5051149;28;19974;-76
2023/03/25 13:43:42;;;;;;;;;;;21.80;52.50;;;;;;5051238;28;19919;-76
2023/03/25 13:46:09;;;;;;;;;;;21.80;52.50;;;;;;5051795;28;19913;-76
2023/03/25 13:48:35;;;;;;;;;;;21.90;52.60;;;;;;5033427;28;19913;-76
2023/03/25 13:51:02;;;;;;;;;;;21.80;52.50;;;;;;5034926;28;20400;-76
2023/03/25 13:53:28;;;;;;;;;;;21.80;52.50;;;;;;5055132;28;19909;-76
2023/03/25 13:56:00;;;;;;;;;;;21.70;52.50;;;;;;5055172;28;19987;-77
2023/03/25 13:58:26;;;;;;;;;;;21.80;52.50;;;;;;5037150;28;20319;-76
2023/03/25 14:00:55;;;;;;;;;;;21.80;52.50;;;;;;5054932;28;19967;-76
2023/03/25 14:03:33;;;;;;;;;;;21.70;52.50;;;;;;5055406;28;20438;-76
2023/03/25 14:06:18;;;;;;;;;;;21.80;52.40;;;;;;5054949;28;20007;-76
2023/03/25 14:08:57;;;;;;;;;;;21.80;52.50;;;;;;5054871;28;19916;-76
2023/03/25 14:11:28;;;;;;;;;;;21.80;52.50;;;;;;5054552;28;19913;-76
2023/03/25 14:13:56;;;;;;;;;;;21.70;52.50;;;;;;5054941;28;19919;-76
2023/03/25 14:16:24;;;;;;;;;;;21.80;52.50;;;;;;5054837;28;19909;-77
2023/03/25 14:18:57;;;;;;;;;;;21.80;52.40;;;;;;5054650;28;19915;-76
2023/03/25 14:21:28;;;;;;;;;;;21.90;52.50;;;;;;5036571;28;19916;-76
2023/03/25 14:24:08;;;;;;;;;;;21.90;52.50;;;;;;5054572;28;19913;-76
2023/03/25 14:26:36;;;;;;;;;;;21.90;52.50;;;;;;5054539;28;20011;-76
2023/03/25 14:29:06;;;;;;;;;;;21.80;52.30;;;;;;5054466;28;20288;-76
2023/03/25 14:31:32;;;;;;;;;;;21.90;52.40;;;;;;5054185;28;20307;-76
2023/03/25 14:33:58;;;;;;;;;;;21.90;52.50;;;;;;5054514;28;19991;-76